createdAt,value
2022-10-02T00:01:35.837Z,63.81
2022-10-02T00:04:02.269Z,64.29
2022-10-02T00:06:28.673Z,63.81
2022-10-02T00:08:54.997Z,64.02
2022-10-02T00:11:21.339Z,64.56
2022-10-02T00:13:47.669Z,64.38
2022-10-02T00:16:14.081Z,64.12
2022-10-02T00:18:40.444Z,63.88
2022-10-02T00:21:06.764Z,63.85
2022-10-02T00:23:33.103Z,64.41
2022-10-02T00:25:59.437Z,64.03
2022-10-02T00:28:25.831Z,63.70
2022-10-02T00:30:52.224Z,64.60
2022-10-02T00:33:18.569Z,64.05
2022-10-02T00:35:44.914Z,64.19
2022-10-02T00:38:11.237Z,64.32
2022-10-02T00:40:37.556Z,64.74
2022-10-02T00:43:03.906Z,64.96
2022-10-02T00:45:30.251Z,64.34
2022-10-02T00:47:56.616Z,64.41
2022-10-02T00:50:22.962Z,64.57
2022-10-02T00:52:49.289Z,64.64
2022-10-02T00:55:15.613Z,64.89
2022-10-02T00:57:41.962Z,65.06
2022-10-02T01:00:08.292Z,64.80
2022-10-02T01:02:34.630Z,64.48
2022-10-02T01:05:00.970Z,64.74
2022-10-02T01:07:27.318Z,64.77
2022-10-02T01:09:53.650Z,65.16
2022-10-02T01:12:19.984Z,64.92
2022-10-02T01:14:46.329Z,65.18
2022-10-02T01:17:12.658Z,65.05
2022-10-02T01:19:38.986Z,64.27
2022-10-02T01:22:05.327Z,64.65
2022-10-02T01:24:31.664Z,64.75
2022-10-02T01:26:58.003Z,64.70
2022-10-02T01:29:24.334Z,64.57
2022-10-02T01:31:50.692Z,64.73
2022-10-02T01:34:17.042Z,64.23
2022-10-02T01:36:43.398Z,64.37
2022-10-02T01:39:09.737Z,64.52
2022-10-02T01:41:36.091Z,64.30
2022-10-02T01:44:02.418Z,64.33
2022-10-02T01:46:28.757Z,64.55
2022-10-02T01:48:55.089Z,64.47
2022-10-02T01:51:21.417Z,64.22
2022-10-02T01:53:47.753Z,63.56
2022-10-02T01:56:14.084Z,63.89
2022-10-02T01:58:40.409Z,64.14
2022-10-02T02:01:06.804Z,63.66
2022-10-02T02:03:33.190Z,64.01
2022-10-02T02:05:59.529Z,63.82
2022-10-02T02:08:25.848Z,63.85
2022-10-02T02:10:52.187Z,63.98
2022-10-02T02:13:18.521Z,63.92
2022-10-02T02:15:44.849Z,63.94
2022-10-02T02:18:11.176Z,63.44
2022-10-02T02:20:37.519Z,63.41
2022-10-02T02:23:03.852Z,63.77
2022-10-02T02:25:30.188Z,63.78
2022-10-02T02:27:56.589Z,63.67
2022-10-02T02:30:22.945Z,63.95
2022-10-02T02:32:49.269Z,63.80
2022-10-02T02:35:15.617Z,63.99
2022-10-02T02:37:41.945Z,63.92
2022-10-02T02:40:08.282Z,63.78
2022-10-02T02:42:34.625Z,64.22
2022-10-02T02:45:00.943Z,64.49
2022-10-02T02:47:27.273Z,64.41
2022-10-02T02:49:53.620Z,64.21
2022-10-02T02:52:19.954Z,64.10
2022-10-02T02:54:46.287Z,64.25
2022-10-02T02:57:12.616Z,64.29
2022-10-02T02:59:38.949Z,64.74
2022-10-02T03:02:05.336Z,64.39
2022-10-02T03:04:31.733Z,64.62
2022-10-02T03:06:58.078Z,64.34
2022-10-02T03:09:24.410Z,64.88
2022-10-02T03:11:50.741Z,64.48
2022-10-02T03:14:17.071Z,64.39
2022-10-02T03:16:43.405Z,64.05
2022-10-02T03:19:09.733Z,63.97
2022-10-02T03:21:36.062Z,64.25
2022-10-02T03:24:02.392Z,64.14
2022-10-02T03:26:28.711Z,64.39
2022-10-02T03:28:56.770Z,64.15
2022-10-02T03:31:23.490Z,64.39
2022-10-02T03:33:49.922Z,64.03
2022-10-02T03:36:16.262Z,63.75
2022-10-02T03:38:42.592Z,64.32
2022-10-02T03:41:08.921Z,63.96
2022-10-02T03:43:35.258Z,64.64
2022-10-02T03:46:01.642Z,63.79
2022-10-02T03:48:28.029Z,64.10
2022-10-02T03:50:54.361Z,64.15
2022-10-02T03:53:20.687Z,64.48
2022-10-02T03:55:47.004Z,63.99
2022-10-02T03:58:13.329Z,64.25
2022-10-02T04:00:39.653Z,64.01
2022-10-02T04:03:05.981Z,64.08
2022-10-02T04:05:32.310Z,64.12
2022-10-02T04:07:58.663Z,64.59
2022-10-02T04:10:25.001Z,64.14
2022-10-02T04:12:51.320Z,64.14
2022-10-02T04:15:17.662Z,64.56
2022-10-02T04:17:44.026Z,64.78
2022-10-02T04:20:10.414Z,64.24
2022-10-02T04:22:36.754Z,64.18
2022-10-02T04:25:03.085Z,64.52
2022-10-02T04:27:29.394Z,64.52
2022-10-02T04:29:55.726Z,64.49
2022-10-02T04:32:22.052Z,64.85
2022-10-02T04:34:48.385Z,64.54
2022-10-02T04:37:14.724Z,64.31
2022-10-02T04:39:45.839Z,64.32
2022-10-02T04:42:12.899Z,64.57
2022-10-02T04:44:39.224Z,64.71
2022-10-02T04:47:05.553Z,64.69
2022-10-02T04:49:31.901Z,64.71
2022-10-02T04:51:58.257Z,64.91
2022-10-02T04:54:24.602Z,64.70
2022-10-02T04:56:50.928Z,64.65
2022-10-02T04:59:17.271Z,64.41
2022-10-02T05:01:43.646Z,64.66
2022-10-02T05:04:10.006Z,64.58
2022-10-02T05:06:36.534Z,64.60
2022-10-02T05:09:03.114Z,64.66
2022-10-02T05:11:29.428Z,64.36
2022-10-02T05:13:55.762Z,64.40
2022-10-02T05:16:22.123Z,64.43
2022-10-02T05:18:48.509Z,64.76
2022-10-02T05:21:14.838Z,64.09
2022-10-02T05:23:41.176Z,64.30
2022-10-02T05:26:11.959Z,64.42
2022-10-02T05:28:40.447Z,64.28
2022-10-02T05:31:06.848Z,64.37
2022-10-02T05:33:33.241Z,64.57
2022-10-02T05:35:59.577Z,63.80
2022-10-02T05:38:25.893Z,64.43
2022-10-02T05:40:52.233Z,63.88
2022-10-02T05:43:18.576Z,64.39
2022-10-02T05:45:44.922Z,64.42
2022-10-02T05:48:11.256Z,64.03
2022-10-02T05:50:37.588Z,63.85
2022-10-02T05:53:03.933Z,64.08
2022-10-02T05:55:30.283Z,64.43
2022-10-02T05:57:56.641Z,64.36
2022-10-02T06:00:22.994Z,65.33
2022-10-02T06:02:49.331Z,65.17
2022-10-02T06:05:15.679Z,64.67
2022-10-02T06:07:42.009Z,64.77
2022-10-02T06:10:08.355Z,64.99
2022-10-02T06:12:34.685Z,64.60
2022-10-02T06:15:01.003Z,64.54
2022-10-02T06:17:27.337Z,64.45
2022-10-02T06:19:53.684Z,64.86
2022-10-02T06:22:20.024Z,64.59
2022-10-02T06:24:46.362Z,64.42
2022-10-02T06:27:12.692Z,64.38
2022-10-02T06:29:39.015Z,64.88
2022-10-02T06:32:05.345Z,64.96
2022-10-02T06:34:31.680Z,64.24
2022-10-02T06:36:58.007Z,64.49
2022-10-02T06:39:24.333Z,64.49
2022-10-02T06:41:50.666Z,65.07
2022-10-02T06:44:17.102Z,64.87
2022-10-02T06:46:43.459Z,64.56
2022-10-02T06:49:09.772Z,64.91
2022-10-02T06:51:36.119Z,64.62
2022-10-02T06:54:02.454Z,64.79
2022-10-02T06:56:28.775Z,65.06
2022-10-02T06:58:55.098Z,64.96
2022-10-02T07:01:21.450Z,65.02
2022-10-02T07:03:47.810Z,65.00
2022-10-02T07:06:14.144Z,64.94
2022-10-02T07:08:40.465Z,65.70
2022-10-02T07:11:06.806Z,65.14
2022-10-02T07:13:33.145Z,65.19
2022-10-02T07:15:59.493Z,65.40
2022-10-02T07:18:25.845Z,64.84
2022-10-02T07:20:52.164Z,65.31
2022-10-02T07:23:18.497Z,65.97
2022-10-02T07:25:44.830Z,66.33
2022-10-02T07:28:11.235Z,65.64
2022-10-02T07:30:37.626Z,65.28
2022-10-02T07:33:03.960Z,65.85
2022-10-02T07:35:30.290Z,65.23
2022-10-02T07:37:56.630Z,65.36
2022-10-02T07:40:22.967Z,64.82
2022-10-02T07:42:49.297Z,65.71
2022-10-02T07:45:15.631Z,65.56
2022-10-02T07:47:41.967Z,65.14
2022-10-02T07:50:08.306Z,64.86
2022-10-02T07:52:34.637Z,64.81
2022-10-02T07:55:00.970Z,64.57
2022-10-02T07:57:27.305Z,65.02
2022-10-02T07:59:53.643Z,64.93
2022-10-02T08:02:20.033Z,64.86
2022-10-02T08:04:46.455Z,65.15
2022-10-02T08:07:12.786Z,65.44
2022-10-02T08:09:39.117Z,64.97
2022-10-02T08:12:05.453Z,65.74
2022-10-02T08:14:31.778Z,65.79
2022-10-02T08:16:58.097Z,65.33
2022-10-02T08:19:24.437Z,65.46
2022-10-02T08:21:50.767Z,65.48
2022-10-02T08:24:17.092Z,65.57
2022-10-02T08:26:43.439Z,65.00
2022-10-02T08:29:09.781Z,65.19
2022-10-02T08:31:36.161Z,65.57
2022-10-02T08:34:02.660Z,65.53
2022-10-02T08:36:28.976Z,66.16
2022-10-02T08:38:55.437Z,65.82
2022-10-02T08:41:21.765Z,65.65
2022-10-02T08:43:48.095Z,65.84
2022-10-02T08:46:14.533Z,65.72
2022-10-02T08:48:40.929Z,65.77
2022-10-02T08:51:07.295Z,65.37
2022-10-02T08:53:33.629Z,65.62
2022-10-02T08:55:59.958Z,64.06
2022-10-02T08:58:26.281Z,64.80
2022-10-02T09:00:52.665Z,63.48
2022-10-02T09:03:19.017Z,63.55
2022-10-02T09:05:45.349Z,63.13
2022-10-02T09:08:11.707Z,62.78
2022-10-02T09:10:38.032Z,63.53
2022-10-02T09:13:04.357Z,63.26
2022-10-02T09:15:30.682Z,63.58
2022-10-02T09:17:57.010Z,63.83
2022-10-02T09:20:23.346Z,63.08
2022-10-02T09:22:49.673Z,63.89
2022-10-02T09:25:16.006Z,63.39
2022-10-02T09:27:42.350Z,63.41
2022-10-02T09:30:08.693Z,63.36
2022-10-02T09:32:35.063Z,62.88
2022-10-02T09:35:01.400Z,63.38
2022-10-02T09:37:27.744Z,64.63
2022-10-02T09:39:54.077Z,63.57
2022-10-02T09:42:20.402Z,63.60
2022-10-02T09:44:46.722Z,63.38
2022-10-02T09:47:13.079Z,63.54
2022-10-02T09:49:39.408Z,62.25
2022-10-02T09:52:05.744Z,62.17
2022-10-02T09:54:32.071Z,61.55
2022-10-02T09:56:58.403Z,61.51
2022-10-02T09:59:24.737Z,61.55
2022-10-02T10:01:51.159Z,61.58
2022-10-02T10:04:17.525Z,61.73
2022-10-02T10:06:43.855Z,60.83
2022-10-02T10:09:10.204Z,61.25
2022-10-02T10:11:36.724Z,61.37
2022-10-02T10:14:03.193Z,62.41
2022-10-02T10:16:29.624Z,62.69
2022-10-02T10:18:56.044Z,61.81
2022-10-02T10:21:24.742Z,61.81
2022-10-02T10:23:54.365Z,62.08
2022-10-02T10:26:20.691Z,61.90
2022-10-02T10:28:47.034Z,61.99
2022-10-02T10:31:13.434Z,60.54
2022-10-02T10:33:39.811Z,60.57
2022-10-02T10:36:06.174Z,59.81
2022-10-02T10:38:32.509Z,60.28
2022-10-02T10:40:58.861Z,59.16
2022-10-02T10:43:25.204Z,60.02
2022-10-02T10:45:51.637Z,59.79
2022-10-02T10:48:17.989Z,59.19
2022-10-02T10:50:44.338Z,60.82
2022-10-02T10:53:10.669Z,59.96
2022-10-02T10:55:36.990Z,60.27
2022-10-02T10:58:03.327Z,60.31
2022-10-02T11:00:29.649Z,59.27
2022-10-02T11:02:55.990Z,59.86
2022-10-02T11:05:22.346Z,58.92
2022-10-02T11:07:48.681Z,60.30
2022-10-02T11:10:15.026Z,60.07
2022-10-02T11:12:41.368Z,59.57
2022-10-02T11:15:07.707Z,59.48
2022-10-02T11:17:34.035Z,60.27
2022-10-02T11:20:00.362Z,60.42
2022-10-02T11:22:26.705Z,60.15
2022-10-02T11:24:53.036Z,58.54
2022-10-02T11:27:19.357Z,58.00
2022-10-02T11:29:45.679Z,58.57
2022-10-02T11:32:12.014Z,57.16
2022-10-02T11:34:38.338Z,57.25
2022-10-02T11:37:04.677Z,57.12
2022-10-02T11:39:31.005Z,57.40
2022-10-02T11:41:57.335Z,59.27
2022-10-02T11:44:23.679Z,56.46
2022-10-02T11:46:50.002Z,56.93
2022-10-02T11:49:16.319Z,56.39
2022-10-02T11:51:42.640Z,56.70
2022-10-02T11:54:08.964Z,56.50
2022-10-02T11:56:35.288Z,55.76
2022-10-02T11:59:01.629Z,56.01
2022-10-02T12:01:27.960Z,56.56
2022-10-02T12:03:54.298Z,56.95
2022-10-02T12:06:20.627Z,56.12
2022-10-02T12:08:46.975Z,56.09
2022-10-02T12:11:13.346Z,56.03
2022-10-02T12:13:39.680Z,56.05
2022-10-02T12:16:06.042Z,55.25
2022-10-02T12:18:32.404Z,55.65
2022-10-02T12:20:58.753Z,54.48
2022-10-02T12:23:25.064Z,55.77
2022-10-02T12:25:51.402Z,54.68
2022-10-02T12:28:17.793Z,54.53
2022-10-02T12:30:44.194Z,53.82
2022-10-02T12:33:10.537Z,54.78
2022-10-02T12:35:36.866Z,54.04
2022-10-02T12:38:03.190Z,54.02
2022-10-02T12:40:29.516Z,54.17
2022-10-02T12:42:55.853Z,53.47
2022-10-02T12:45:22.173Z,53.72
2022-10-02T12:47:48.511Z,53.60
2022-10-02T12:50:14.831Z,54.29
2022-10-02T12:52:41.143Z,54.10
2022-10-02T12:55:07.469Z,54.20
2022-10-02T12:57:38.764Z,53.33
2022-10-02T13:00:05.538Z,52.45
2022-10-02T13:02:56.183Z,52.29
2022-10-02T13:05:18.196Z,52.67
2022-10-02T13:07:44.545Z,52.00
2022-10-02T13:10:10.893Z,51.75
2022-10-02T13:12:37.223Z,52.26
2022-10-02T13:15:03.560Z,52.27
2022-10-02T13:17:29.887Z,51.67
2022-10-02T13:19:56.209Z,51.56
2022-10-02T13:22:22.543Z,51.90
2022-10-02T13:24:48.875Z,52.33
2022-10-02T13:27:15.201Z,51.76
2022-10-02T13:29:41.535Z,52.38
2022-10-02T13:32:07.931Z,51.02
2022-10-02T13:34:38.327Z,53.04
2022-10-02T13:37:04.999Z,49.81
2022-10-02T13:39:31.331Z,48.62
2022-10-02T13:41:57.674Z,47.25
2022-10-02T13:44:24.012Z,46.07
2022-10-02T13:46:50.350Z,46.20
2022-10-02T13:49:16.688Z,45.84
2022-10-02T13:51:43.033Z,44.28
2022-10-02T13:54:09.362Z,44.90
2022-10-02T13:56:35.694Z,43.83
2022-10-02T13:59:02.017Z,44.04
2022-10-02T14:01:28.392Z,45.16
2022-10-02T14:03:54.842Z,44.81
2022-10-02T14:06:21.221Z,43.87
2022-10-02T14:08:47.551Z,44.05
2022-10-02T14:11:13.872Z,45.27
2022-10-02T14:13:40.213Z,44.67
2022-10-02T14:16:06.583Z,44.46
2022-10-02T14:18:32.953Z,44.20
2022-10-02T14:20:59.283Z,44.34
2022-10-02T14:23:25.609Z,44.60
2022-10-02T14:25:51.946Z,44.26
2022-10-02T14:28:18.407Z,44.22
2022-10-02T14:30:44.794Z,44.31
2022-10-02T14:33:11.127Z,43.63
2022-10-02T14:35:37.471Z,44.73
2022-10-02T14:38:03.803Z,44.55
2022-10-02T14:40:30.136Z,44.42
2022-10-02T14:42:56.473Z,43.44
2022-10-02T14:45:22.875Z,45.92
2022-10-02T14:47:49.392Z,43.48
2022-10-02T14:50:15.716Z,43.71
2022-10-02T14:52:42.040Z,44.31
2022-10-02T14:55:08.382Z,44.57
2022-10-02T14:57:34.710Z,44.34
2022-10-02T15:00:01.059Z,43.78
2022-10-02T15:02:27.373Z,43.21
2022-10-02T15:04:53.705Z,42.86
2022-10-02T15:07:20.036Z,44.12
2022-10-02T15:09:46.376Z,43.78
2022-10-02T15:12:12.710Z,43.73
2022-10-02T15:14:39.032Z,44.83
2022-10-02T15:17:05.350Z,44.59
2022-10-02T15:19:31.697Z,43.94
2022-10-02T15:21:58.043Z,44.04
2022-10-02T15:24:24.380Z,44.15
2022-10-02T15:26:50.753Z,44.75
2022-10-02T15:29:17.089Z,44.69
2022-10-02T15:31:43.632Z,44.58
2022-10-02T15:34:10.002Z,44.55
2022-10-02T15:36:36.577Z,44.27
2022-10-02T15:39:03.061Z,44.37
2022-10-02T15:41:29.427Z,44.52
2022-10-02T15:43:55.852Z,43.56
2022-10-02T15:46:22.310Z,44.33
2022-10-02T15:48:52.367Z,44.79
2022-10-02T15:51:19.392Z,45.64
2022-10-02T15:53:45.823Z,45.50
2022-10-02T15:56:12.264Z,45.06
2022-10-02T15:58:38.641Z,44.13
2022-10-02T16:01:05.372Z,44.41
2022-10-02T16:03:31.750Z,44.64
2022-10-02T16:05:58.093Z,44.25
2022-10-02T16:08:24.439Z,44.65
2022-10-02T16:10:50.776Z,44.91
2022-10-02T16:13:17.124Z,44.61
2022-10-02T16:15:43.730Z,44.97
2022-10-02T16:18:10.294Z,44.32
2022-10-02T16:20:36.801Z,44.71
2022-10-02T16:23:03.305Z,44.01
2022-10-02T16:25:29.663Z,44.13
2022-10-02T16:27:56.031Z,43.71
2022-10-02T16:30:22.386Z,43.41
2022-10-02T16:32:48.725Z,43.64
2022-10-02T16:35:15.054Z,42.72
2022-10-02T16:37:41.529Z,43.05
2022-10-02T16:40:08.193Z,42.94
2022-10-02T16:42:34.562Z,43.04
2022-10-02T16:45:00.898Z,42.72
2022-10-02T16:47:27.245Z,42.23
2022-10-02T16:49:55.647Z,42.62
2022-10-02T16:52:22.008Z,42.94
2022-10-02T16:54:48.386Z,43.18
2022-10-02T16:57:14.709Z,43.21
2022-10-02T16:59:41.178Z,42.93
2022-10-02T17:02:17.533Z,43.35
2022-10-02T17:04:44.791Z,43.11
2022-10-02T17:07:11.125Z,43.47
2022-10-02T17:09:37.467Z,43.86
2022-10-02T17:12:03.870Z,43.26
2022-10-02T17:14:30.188Z,44.50
2022-10-02T17:16:56.612Z,46.03
2022-10-02T17:19:23.032Z,45.89
2022-10-02T17:21:49.353Z,45.95
2022-10-02T17:24:15.697Z,45.40
2022-10-02T17:26:42.022Z,48.13
2022-10-02T17:29:08.362Z,48.61
2022-10-02T17:31:34.730Z,49.12
2022-10-02T17:34:01.130Z,48.66
2022-10-02T17:36:27.448Z,46.82
2022-10-02T17:38:53.785Z,47.66
2022-10-02T17:41:20.108Z,46.31
2022-10-02T17:43:46.453Z,47.52
2022-10-02T17:46:12.831Z,48.39
2022-10-02T17:48:39.226Z,47.08
2022-10-02T17:51:19.474Z,45.84
2022-10-02T17:53:51.866Z,47.17
2022-10-02T17:56:18.193Z,47.36
2022-10-02T17:58:44.516Z,45.65
2022-10-02T18:01:10.893Z,46.26
2022-10-02T18:03:37.237Z,45.05
2022-10-02T18:06:03.621Z,44.73
2022-10-02T18:08:30.599Z,45.78
2022-10-02T18:10:57.173Z,45.63
2022-10-02T18:13:23.513Z,45.94
2022-10-02T18:15:49.851Z,46.01
2022-10-02T18:18:16.206Z,47.04
2022-10-02T18:20:42.551Z,47.24
2022-10-02T18:23:08.902Z,46.35
2022-10-02T18:25:35.237Z,47.38
2022-10-02T18:28:01.617Z,46.55
2022-10-02T18:30:27.968Z,47.97
2022-10-02T18:32:54.320Z,48.88
2022-10-02T18:35:20.668Z,48.99
2022-10-02T18:37:47.030Z,48.69
2022-10-02T18:40:13.365Z,49.50
2022-10-02T18:42:39.713Z,50.30
2022-10-02T18:45:06.054Z,50.83
2022-10-02T18:47:32.389Z,50.49
2022-10-02T18:49:58.751Z,50.90
2022-10-02T18:52:25.085Z,50.43
2022-10-02T18:54:51.508Z,49.74
2022-10-02T18:57:17.844Z,49.35
2022-10-02T18:59:44.180Z,50.11
2022-10-02T19:02:10.572Z,50.78
2022-10-02T19:04:36.974Z,51.89
2022-10-02T19:07:03.306Z,51.91
2022-10-02T19:09:29.656Z,52.21
2022-10-02T19:11:55.985Z,50.66
2022-10-02T19:14:22.381Z,51.95
2022-10-02T19:16:48.770Z,52.19
2022-10-02T19:19:15.171Z,51.51
2022-10-02T19:21:41.501Z,52.41
2022-10-02T19:24:07.829Z,52.74
2022-10-02T19:26:34.155Z,51.69
2022-10-02T19:29:00.499Z,50.87
2022-10-02T19:31:26.975Z,50.42
2022-10-02T19:33:53.353Z,50.72
2022-10-02T19:36:19.685Z,51.35
2022-10-02T19:38:47.109Z,50.60
2022-10-02T19:41:13.449Z,51.45
2022-10-02T19:43:39.788Z,50.43
2022-10-02T19:46:06.180Z,50.99
2022-10-02T19:48:32.547Z,51.30
2022-10-02T19:50:58.899Z,51.42
2022-10-02T19:53:25.233Z,51.53
2022-10-02T19:55:51.560Z,51.19
2022-10-02T19:58:17.919Z,50.38
2022-10-02T20:00:44.312Z,50.37
2022-10-02T20:03:10.685Z,50.99
2022-10-02T20:05:37.003Z,51.07
2022-10-02T20:08:06.866Z,50.53
2022-10-02T20:10:33.565Z,49.36
2022-10-02T20:12:59.894Z,51.17
2022-10-02T20:15:26.250Z,51.52
2022-10-02T20:17:52.576Z,52.34
2022-10-02T20:20:18.946Z,51.98
2022-10-02T20:22:45.286Z,53.20
2022-10-02T20:25:11.619Z,54.06
2022-10-02T20:27:37.949Z,54.13
2022-10-02T20:30:04.273Z,54.01
2022-10-02T20:32:30.613Z,54.00
2022-10-02T20:34:56.969Z,54.28
2022-10-02T20:37:23.298Z,54.87
2022-10-02T20:39:49.623Z,54.82
2022-10-02T20:42:15.958Z,55.42
2022-10-02T20:44:42.279Z,56.58
2022-10-02T20:47:08.605Z,55.61
2022-10-02T20:49:34.940Z,54.27
2022-10-02T20:52:01.264Z,54.85
2022-10-02T20:54:27.620Z,54.32
2022-10-02T20:56:53.963Z,54.42
2022-10-02T20:59:20.307Z,53.49
2022-10-02T21:01:46.648Z,53.70
2022-10-02T21:04:12.990Z,52.73
2022-10-02T21:06:39.562Z,52.92
2022-10-02T21:09:06.271Z,53.06
2022-10-02T21:11:32.601Z,53.54
2022-10-02T21:13:58.941Z,53.68
2022-10-02T21:16:25.390Z,53.02
2022-10-02T21:18:51.754Z,53.49
2022-10-02T21:21:18.091Z,53.26
2022-10-02T21:23:44.426Z,54.48
2022-10-02T21:26:10.761Z,53.77
2022-10-02T21:28:37.109Z,51.89
2022-10-02T21:31:03.546Z,52.11
2022-10-02T21:33:29.900Z,53.52
2022-10-02T21:35:56.238Z,53.97
2022-10-02T21:38:22.546Z,53.91
2022-10-02T21:40:48.886Z,53.62
2022-10-02T21:43:15.234Z,54.19
2022-10-02T21:45:41.600Z,54.19
2022-10-02T21:48:07.961Z,54.65
2022-10-02T21:50:34.296Z,55.16
2022-10-02T21:53:00.618Z,53.16
2022-10-02T21:55:26.935Z,53.31
2022-10-02T21:57:53.273Z,52.79
2022-10-02T22:00:19.599Z,54.11
2022-10-02T22:02:45.925Z,54.13
2022-10-02T22:05:12.260Z,54.08
2022-10-02T22:07:38.598Z,55.62
2022-10-02T22:10:04.942Z,54.74
2022-10-02T22:12:31.293Z,55.25
2022-10-02T22:14:57.628Z,54.96
2022-10-02T22:17:23.975Z,54.05
2022-10-02T22:19:50.307Z,53.07
2022-10-02T22:22:16.635Z,52.92
2022-10-02T22:24:42.957Z,53.63
2022-10-02T22:27:09.296Z,53.81
2022-10-02T22:29:35.622Z,53.33
2022-10-02T22:32:01.949Z,53.05
2022-10-02T22:34:28.284Z,53.10
2022-10-02T22:36:54.614Z,52.44
2022-10-02T22:39:20.944Z,53.00
2022-10-02T22:41:47.272Z,52.28
2022-10-02T22:44:13.606Z,53.01
2022-10-02T22:46:41.470Z,53.14
2022-10-02T22:49:08.004Z,52.66
2022-10-02T22:51:34.327Z,52.15
2022-10-02T22:54:00.659Z,52.94
2022-10-02T22:56:26.982Z,53.21
2022-10-02T22:58:53.303Z,52.40
2022-10-02T23:01:19.711Z,52.38
2022-10-02T23:03:46.099Z,53.15
2022-10-02T23:06:12.458Z,53.30
2022-10-02T23:08:38.784Z,54.15
2022-10-02T23:11:05.133Z,53.88
2022-10-02T23:13:31.478Z,54.74
2022-10-02T23:15:57.853Z,55.25
2022-10-02T23:18:24.205Z,54.86
2022-10-02T23:20:50.524Z,54.61
2022-10-02T23:23:16.865Z,54.86
2022-10-02T23:25:43.179Z,55.19
2022-10-02T23:28:09.577Z,55.55
2022-10-02T23:30:36.041Z,56.68
2022-10-02T23:33:02.394Z,55.18
2022-10-02T23:35:28.718Z,55.22
2022-10-02T23:37:55.051Z,55.35
2022-10-02T23:40:21.390Z,55.52
2022-10-02T23:42:47.720Z,55.42
2022-10-02T23:45:14.055Z,55.46
2022-10-02T23:47:40.373Z,55.53
2022-10-02T23:50:06.700Z,56.33
2022-10-02T23:52:33.033Z,56.37
2022-10-02T23:54:59.365Z,57.17
2022-10-02T23:57:25.692Z,56.65
2022-10-02T23:59:52.017Z,56.62
